createdAt,value
2023-01-17T00:00:00.147Z,6.10
2023-01-17T00:02:26.648Z,6.25
2023-01-17T00:05:11.593Z,7.03
2023-01-17T00:07:56.431Z,4.88
2023-01-17T00:10:25.433Z,5.30
2023-01-17T00:12:57.376Z,4.80
2023-01-17T00:15:24.789Z,4.18
2023-01-17T00:17:51.659Z,4.57
2023-01-17T00:20:39.082Z,5.70
2023-01-17T00:23:42.732Z,6.88
2023-01-17T00:26:13.120Z,4.50
2023-01-17T00:28:41.366Z,4.82
2023-01-17T00:31:09.450Z,16.23
2023-01-17T00:33:36.467Z,6.82
2023-01-17T00:36:04.359Z,5.53
2023-01-17T00:38:33.320Z,3.87
2023-01-17T00:41:08.314Z,4.65
2023-01-17T00:43:53.262Z,4.95
2023-01-17T00:46:38.720Z,4.22
2023-01-17T00:49:24.469Z,5.57
2023-01-17T00:52:09.821Z,5.50
2023-01-17T00:54:54.625Z,4.25
2023-01-17T00:57:39.488Z,3.58
2023-01-17T01:00:25.490Z,5.72
2023-01-17T01:03:10.751Z,7.00
2023-01-17T01:05:56.731Z,4.43
2023-01-17T01:08:45.388Z,4.53
2023-01-17T01:11:36.009Z,4.30
2023-01-17T01:14:21.989Z,5.53
2023-01-17T01:17:07.353Z,5.97
2023-01-17T01:19:52.878Z,5.33
2023-01-17T01:22:37.830Z,5.72
2023-01-17T01:25:23.217Z,4.90
2023-01-17T01:28:08.515Z,6.28
2023-01-17T01:30:53.929Z,5.05
2023-01-17T01:33:20.581Z,4.20
2023-01-17T01:35:53.621Z,9.30
2023-01-17T01:38:22.523Z,5.57
2023-01-17T01:40:52.035Z,3.63
2023-01-17T01:43:21.908Z,4.30
2023-01-17T01:45:57.301Z,4.33
2023-01-17T01:48:39.575Z,5.57
2023-01-17T01:51:10.262Z,4.30
2023-01-17T01:53:40.712Z,5.90
2023-01-17T01:56:11.286Z,5.78
2023-01-17T01:58:40.027Z,4.83
2023-01-17T02:01:08.425Z,3.28
2023-01-17T02:03:37.575Z,5.55
2023-01-17T02:06:24.791Z,3.40
2023-01-17T02:08:51.872Z,4.05
2023-01-17T02:11:18.721Z,5.10
2023-01-17T02:13:45.258Z,4.10
2023-01-17T02:16:30.976Z,4.15
2023-01-17T02:19:32.930Z,3.88
2023-01-17T02:22:08.107Z,4.30
2023-01-17T02:24:53.640Z,5.73
2023-01-17T02:27:28.403Z,4.88
2023-01-17T02:30:41.677Z,4.10
2023-01-17T02:33:55.752Z,3.47
2023-01-17T02:36:46.053Z,2.97
2023-01-17T02:39:39.297Z,3.60
2023-01-17T02:42:11.010Z,6.80
2023-01-17T02:44:44.390Z,3.78
2023-01-17T02:47:24.364Z,5.47
2023-01-17T02:49:53.727Z,3.97
2023-01-17T02:52:50.848Z,3.97
2023-01-17T02:55:48.225Z,5.40
2023-01-17T02:58:17.539Z,5.35
2023-01-17T03:01:20.649Z,4.70
2023-01-17T03:03:54.912Z,4.05
2023-01-17T03:06:51.459Z,3.40
2023-01-17T03:09:19.084Z,3.38
2023-01-17T03:11:45.623Z,4.53
2023-01-17T03:14:12.437Z,3.63
2023-01-17T03:16:39.535Z,5.40
2023-01-17T03:19:05.944Z,5.13
2023-01-17T03:21:32.371Z,4.28
2023-01-17T03:23:58.797Z,3.45
2023-01-17T03:26:25.232Z,6.38
2023-01-17T03:28:51.737Z,4.10
2023-01-17T03:31:19.896Z,3.30
2023-01-17T03:33:46.808Z,5.22
2023-01-17T03:36:13.316Z,2.60
2023-01-17T03:38:39.787Z,4.10
2023-01-17T03:41:07.297Z,3.28
2023-01-17T03:43:33.729Z,2.77
2023-01-17T03:46:08.309Z,5.15
2023-01-17T03:48:34.690Z,4.18
2023-01-17T03:51:01.105Z,4.63
2023-01-17T03:53:27.559Z,4.88
2023-01-17T03:55:54.016Z,3.03
2023-01-17T03:58:20.801Z,3.17
2023-01-17T04:00:47.281Z,3.67
2023-01-17T04:03:13.752Z,3.90
2023-01-17T04:05:40.274Z,4.03
2023-01-17T04:08:07.332Z,5.47
2023-01-17T04:10:33.934Z,2.92
2023-01-17T04:13:00.336Z,2.35
2023-01-17T04:15:26.781Z,4.10
2023-01-17T04:17:53.303Z,2.83
2023-01-17T04:20:33.853Z,4.20
2023-01-17T04:23:00.620Z,4.03
2023-01-17T04:25:30.026Z,3.33
2023-01-17T04:27:57.750Z,5.22
2023-01-17T04:30:24.616Z,4.40
2023-01-17T04:32:51.234Z,4.27
2023-01-17T04:35:17.620Z,3.50
2023-01-17T04:37:44.054Z,4.30
2023-01-17T04:40:11.626Z,4.32
2023-01-17T04:42:38.208Z,3.92
2023-01-17T04:45:05.357Z,6.97
2023-01-17T04:47:33.678Z,5.65
2023-01-17T04:50:00.171Z,3.95
2023-01-17T04:52:26.599Z,3.45
2023-01-17T04:54:53.055Z,5.68
2023-01-17T04:57:20.026Z,5.53
2023-01-17T04:59:47.140Z,3.58
2023-01-17T05:02:14.181Z,6.05
2023-01-17T05:04:40.779Z,5.03
2023-01-17T05:07:07.225Z,3.72
2023-01-17T05:09:33.666Z,3.03
2023-01-17T05:12:00.171Z,4.00
2023-01-17T05:14:26.945Z,6.35
2023-01-17T05:16:54.996Z,5.18
2023-01-17T05:19:22.640Z,4.28
2023-01-17T05:21:49.353Z,4.17
2023-01-17T05:24:15.917Z,5.22
2023-01-17T05:26:43.219Z,3.08
2023-01-17T05:29:10.605Z,4.78
2023-01-17T05:31:37.369Z,8.52
2023-01-17T05:34:03.989Z,6.23
2023-01-17T05:36:30.567Z,5.22
2023-01-17T05:38:56.949Z,5.05
2023-01-17T05:41:23.437Z,3.05
2023-01-17T05:43:49.833Z,5.45
2023-01-17T05:46:18.062Z,5.93
2023-01-17T05:48:44.673Z,5.35
2023-01-17T05:51:11.070Z,6.18
2023-01-17T05:53:37.558Z,4.30
2023-01-17T05:56:04.193Z,4.95
2023-01-17T05:58:30.604Z,3.87
2023-01-17T06:00:57.152Z,3.65
2023-01-17T06:03:23.650Z,4.80
2023-01-17T06:05:50.252Z,4.70
2023-01-17T06:08:16.778Z,5.10
2023-01-17T06:10:43.596Z,4.57
2023-01-17T06:13:13.600Z,8.85
2023-01-17T06:15:40.174Z,6.25
2023-01-17T06:18:14.199Z,5.30
2023-01-17T06:20:41.462Z,5.25
2023-01-17T06:23:11.498Z,4.10
2023-01-17T06:25:39.158Z,5.55
2023-01-17T06:28:07.398Z,5.50
2023-01-17T06:30:34.267Z,5.55
2023-01-17T06:33:00.882Z,4.20
2023-01-17T06:35:27.401Z,3.83
2023-01-17T06:37:55.475Z,5.28
2023-01-17T06:40:22.569Z,5.95
2023-01-17T06:42:48.949Z,5.93
2023-01-17T06:45:15.546Z,4.22
2023-01-17T06:47:42.426Z,4.77
2023-01-17T06:50:12.304Z,5.55
2023-01-17T06:52:38.916Z,5.55
2023-01-17T06:55:06.240Z,5.82
2023-01-17T06:57:33.439Z,3.60
2023-01-17T06:59:59.910Z,4.73
2023-01-17T07:02:26.430Z,8.90
2023-01-17T07:04:52.880Z,28.58
2023-01-17T07:07:19.334Z,16.02
2023-01-17T07:09:45.741Z,7.60
2023-01-17T07:12:12.305Z,5.00
2023-01-17T07:14:38.740Z,5.38
2023-01-17T07:17:05.799Z,14.07
2023-01-17T07:19:32.259Z,17.27
2023-01-17T07:21:58.909Z,8.85
2023-01-17T07:24:25.336Z,14.37
2023-01-17T07:26:52.224Z,10.38
2023-01-17T07:29:19.183Z,8.40
2023-01-17T07:31:45.619Z,5.25
2023-01-17T07:34:12.064Z,7.28
2023-01-17T07:36:38.530Z,5.40
2023-01-17T07:39:06.392Z,10.73
2023-01-17T07:41:34.712Z,14.13
2023-01-17T07:44:01.244Z,13.90
2023-01-17T07:46:27.786Z,13.38
2023-01-17T07:48:54.295Z,9.53
2023-01-17T07:51:20.813Z,6.72
2023-01-17T07:53:47.199Z,5.88
2023-01-17T07:56:13.722Z,4.93
2023-01-17T07:58:40.271Z,12.88
2023-01-17T08:01:09.994Z,10.13
2023-01-17T08:03:40.187Z,7.22
2023-01-17T08:06:29.279Z,8.30
2023-01-17T08:08:58.829Z,6.10
2023-01-17T08:11:25.782Z,5.82
2023-01-17T08:13:57.355Z,6.37
2023-01-17T08:16:27.055Z,4.90
2023-01-17T08:18:55.133Z,5.97
2023-01-17T08:21:21.689Z,7.20
2023-01-17T08:23:51.467Z,9.77
2023-01-17T08:26:22.292Z,6.23
2023-01-17T08:28:55.062Z,6.82
2023-01-17T08:31:21.610Z,9.38
2023-01-17T08:33:48.054Z,11.38
2023-01-17T08:36:14.433Z,6.88
2023-01-17T08:38:40.905Z,4.37
2023-01-17T08:41:07.316Z,4.57
2023-01-17T08:43:33.938Z,5.85
2023-01-17T08:46:01.227Z,5.05
2023-01-17T08:48:27.742Z,6.15
2023-01-17T08:50:54.249Z,6.60
2023-01-17T08:53:23.105Z,8.88
2023-01-17T08:55:57.848Z,8.38
2023-01-17T08:58:24.302Z,8.85
2023-01-17T09:00:50.979Z,13.13
2023-01-17T09:03:17.423Z,4.93
2023-01-17T09:05:43.849Z,6.82
2023-01-17T09:08:10.292Z,5.55
2023-01-17T09:10:37.127Z,5.53
2023-01-17T09:13:06.670Z,4.25
2023-01-17T09:15:33.124Z,4.97
2023-01-17T09:18:01.285Z,4.85
2023-01-17T09:20:30.158Z,3.60
2023-01-17T09:22:57.377Z,3.00
2023-01-17T09:25:23.784Z,4.10
2023-01-17T09:27:50.250Z,3.67
2023-01-17T09:30:17.166Z,13.35
2023-01-17T09:32:43.636Z,19.67
2023-01-17T09:35:10.268Z,4.75
2023-01-17T09:37:37.010Z,4.85
2023-01-17T09:40:03.751Z,3.50
2023-01-17T09:42:39.233Z,3.88
2023-01-17T09:45:14.648Z,3.75
2023-01-17T09:47:48.126Z,4.43
2023-01-17T09:50:31.809Z,3.83
2023-01-17T09:53:02.669Z,2.77
2023-01-17T09:55:37.024Z,2.90
2023-01-17T09:58:10.353Z,3.60
2023-01-17T10:01:12.360Z,3.70
2023-01-17T10:04:03.242Z,2.58
2023-01-17T10:06:51.945Z,4.93
2023-01-17T10:09:35.197Z,3.63
2023-01-17T10:12:07.751Z,2.53
2023-01-17T10:15:03.024Z,3.20
2023-01-17T10:18:03.557Z,3.70
2023-01-17T10:21:05.294Z,3.40
2023-01-17T10:23:46.520Z,4.05
2023-01-17T10:26:25.226Z,4.10
2023-01-17T10:28:55.399Z,3.15
2023-01-17T10:31:44.972Z,2.75
2023-01-17T10:34:23.141Z,3.57
2023-01-17T10:36:55.128Z,2.70
2023-01-17T10:39:26.279Z,4.38
2023-01-17T10:42:00.702Z,2.90
2023-01-17T10:44:30.205Z,13.98
2023-01-17T10:47:08.652Z,6.00
2023-01-17T10:49:40.139Z,6.20
2023-01-17T10:52:19.033Z,3.20
2023-01-17T10:55:08.612Z,3.30
2023-01-17T10:57:44.292Z,3.33
2023-01-17T11:00:43.917Z,2.90
2023-01-17T11:03:12.494Z,3.17
2023-01-17T11:05:41.132Z,4.05
2023-01-17T11:08:08.381Z,2.80
2023-01-17T11:10:41.985Z,6.50
2023-01-17T11:13:23.759Z,2.77
2023-01-17T11:15:57.404Z,3.08
2023-01-17T11:18:28.238Z,3.45
2023-01-17T11:21:09.443Z,2.90
2023-01-17T11:23:36.059Z,2.65
2023-01-17T11:26:05.947Z,3.30
2023-01-17T11:28:34.547Z,3.40
2023-01-17T11:31:04.222Z,3.92
2023-01-17T11:33:45.918Z,4.50
2023-01-17T11:36:19.646Z,3.58
2023-01-17T11:39:02.992Z,2.93
2023-01-17T11:41:42.111Z,2.65
2023-01-17T11:44:28.013Z,2.50
2023-01-17T11:47:15.631Z,3.78
2023-01-17T11:49:44.463Z,7.13
2023-01-17T11:52:17.072Z,4.30
2023-01-17T11:54:47.391Z,3.45
2023-01-17T11:57:22.667Z,2.85
2023-01-17T11:59:51.616Z,4.10
2023-01-17T12:02:37.717Z,3.13
2023-01-17T12:05:25.329Z,3.73
2023-01-17T12:08:03.752Z,3.75
2023-01-17T12:10:38.590Z,2.80
2023-01-17T12:13:35.107Z,4.65
2023-01-17T12:16:32.698Z,4.20
2023-01-17T12:19:22.235Z,3.27
2023-01-17T12:22:14.026Z,6.22
2023-01-17T12:24:40.462Z,3.95
2023-01-17T12:27:38.587Z,5.22
2023-01-17T12:30:32.767Z,3.70
2023-01-17T12:33:19.180Z,3.17
2023-01-17T12:35:52.812Z,3.65
2023-01-17T12:38:39.812Z,4.22
2023-01-17T12:41:09.633Z,3.05
2023-01-17T12:43:45.952Z,7.03
2023-01-17T12:46:21.340Z,4.37
2023-01-17T12:48:54.366Z,2.70
2023-01-17T12:51:30.889Z,2.90
2023-01-17T12:54:15.998Z,3.55
2023-01-17T12:56:54.105Z,3.28
2023-01-17T12:59:26.517Z,2.53
2023-01-17T13:01:58.273Z,3.95
2023-01-17T13:04:58.097Z,4.80
2023-01-17T13:07:32.687Z,2.70
2023-01-17T13:10:21.231Z,3.47
2023-01-17T13:12:49.468Z,3.03
2023-01-17T13:15:18.322Z,4.32
2023-01-17T13:17:49.777Z,4.53
2023-01-17T13:20:28.801Z,4.07
2023-01-17T13:23:01.511Z,3.33
2023-01-17T13:25:45.957Z,2.73
2023-01-17T13:28:40.364Z,3.70
2023-01-17T13:31:45.521Z,3.45
2023-01-17T13:34:56.253Z,3.75
2023-01-17T13:37:45.716Z,4.32
2023-01-17T13:40:29.553Z,4.57
2023-01-17T13:43:02.249Z,4.13
2023-01-17T13:45:34.842Z,3.67
2023-01-17T13:48:14.754Z,4.75
2023-01-17T13:50:41.160Z,4.97
2023-01-17T13:53:35.536Z,4.10
2023-01-17T13:56:31.457Z,5.20
2023-01-17T13:59:03.877Z,3.67
2023-01-17T14:01:34.697Z,4.53
2023-01-17T14:04:04.951Z,6.22
2023-01-17T14:06:46.421Z,5.90
2023-01-17T14:09:12.782Z,4.25
2023-01-17T14:12:04.240Z,5.18
2023-01-17T14:14:40.025Z,3.55
2023-01-17T14:17:28.185Z,5.93
2023-01-17T14:20:01.520Z,4.93
2023-01-17T14:22:31.414Z,4.85
2023-01-17T14:25:15.175Z,4.25
2023-01-17T14:27:54.464Z,4.80
2023-01-17T14:30:25.776Z,3.92
2023-01-17T14:33:01.429Z,3.87
2023-01-17T14:35:39.010Z,4.80
2023-01-17T14:38:20.262Z,4.32
2023-01-17T14:41:00.502Z,5.05
2023-01-17T14:43:32.269Z,4.13
2023-01-17T14:46:05.023Z,4.83
2023-01-17T14:48:31.567Z,4.97
2023-01-17T14:51:01.992Z,3.83
2023-01-17T14:53:31.439Z,4.88
2023-01-17T14:55:59.534Z,4.75
2023-01-17T14:58:34.645Z,6.33
2023-01-17T15:01:12.970Z,5.20
2023-01-17T15:03:54.177Z,4.20
2023-01-17T15:06:29.144Z,4.25
2023-01-17T15:08:55.698Z,4.25
2023-01-17T15:11:28.138Z,4.90
2023-01-17T15:13:57.541Z,5.85
2023-01-17T15:16:30.190Z,4.97
2023-01-17T15:18:57.740Z,8.23
2023-01-17T15:21:28.029Z,4.68
2023-01-17T15:23:57.376Z,6.67
2023-01-17T15:26:27.030Z,4.45
2023-01-17T15:29:03.103Z,4.43
2023-01-17T15:32:00.041Z,4.55
2023-01-17T15:34:30.990Z,7.80
2023-01-17T15:37:01.298Z,4.70
2023-01-17T15:39:31.860Z,7.30
2023-01-17T15:42:02.427Z,5.50
2023-01-17T15:44:49.383Z,5.50
2023-01-17T15:47:38.480Z,5.30
2023-01-17T15:50:19.951Z,6.50
2023-01-17T15:52:51.917Z,4.38
2023-01-17T15:55:45.368Z,4.45
2023-01-17T15:58:30.091Z,4.63
2023-01-17T16:00:57.068Z,4.20
2023-01-17T16:03:32.104Z,4.73
2023-01-17T16:06:01.113Z,5.22
2023-01-17T16:08:38.777Z,6.53
2023-01-17T16:11:07.068Z,5.55
2023-01-17T16:13:38.528Z,5.00
2023-01-17T16:16:23.248Z,6.07
2023-01-17T16:18:57.712Z,17.92
2023-01-17T16:21:29.469Z,15.38
2023-01-17T16:23:56.770Z,11.43
2023-01-17T16:26:24.268Z,13.63
2023-01-17T16:28:51.683Z,13.33
2023-01-17T16:31:18.871Z,8.82
2023-01-17T16:33:48.139Z,9.35
2023-01-17T16:36:16.392Z,7.72
2023-01-17T16:38:44.694Z,8.13
2023-01-17T16:41:11.637Z,8.10
2023-01-17T16:43:38.183Z,14.75
2023-01-17T16:46:05.893Z,16.02
2023-01-17T16:48:32.529Z,9.60
2023-01-17T16:50:59.395Z,8.25
2023-01-17T16:53:28.012Z,8.13
2023-01-17T16:55:58.012Z,11.38
2023-01-17T16:58:25.045Z,10.05
2023-01-17T17:00:51.820Z,14.60
2023-01-17T17:03:20.808Z,8.93
2023-01-17T17:05:55.807Z,12.10
2023-01-17T17:08:23.101Z,8.63
2023-01-17T17:10:50.109Z,4.57
2023-01-17T17:13:16.661Z,6.50
2023-01-17T17:15:44.037Z,3.38
2023-01-17T17:18:15.350Z,6.03
2023-01-17T17:20:42.084Z,4.35
2023-01-17T17:23:09.984Z,5.93
2023-01-17T17:25:37.440Z,5.78
2023-01-17T17:28:04.860Z,4.45
2023-01-17T17:30:31.550Z,3.40
2023-01-17T17:32:58.434Z,8.20
2023-01-17T17:35:24.898Z,11.27
2023-01-17T17:37:51.593Z,4.90
2023-01-17T17:40:18.169Z,4.30
2023-01-17T17:42:44.611Z,4.57
2023-01-17T17:45:11.273Z,4.57
2023-01-17T17:47:37.665Z,4.82
2023-01-17T17:50:04.349Z,5.97
2023-01-17T17:52:32.353Z,6.97
2023-01-17T17:54:59.016Z,5.23
2023-01-17T17:57:25.479Z,5.55
2023-01-17T17:59:51.886Z,4.65
2023-01-17T18:02:18.322Z,7.15
2023-01-17T18:04:44.783Z,4.22
2023-01-17T18:07:11.223Z,5.60
2023-01-17T18:09:39.169Z,8.30
2023-01-17T18:12:05.764Z,7.28
2023-01-17T18:14:32.398Z,6.35
2023-01-17T18:16:58.891Z,9.07
2023-01-17T18:19:26.433Z,14.83
2023-01-17T18:21:53.157Z,12.30
2023-01-17T18:24:24.551Z,10.65
2023-01-17T18:26:56.880Z,14.85
2023-01-17T18:29:25.228Z,14.70
2023-01-17T18:31:54.977Z,16.60
2023-01-17T18:34:24.340Z,13.00
2023-01-17T18:36:51.849Z,10.55
2023-01-17T18:39:24.455Z,9.90
2023-01-17T18:41:51.566Z,11.15
2023-01-17T18:44:21.757Z,10.20
2023-01-17T18:46:50.099Z,8.63
2023-01-17T18:49:19.164Z,11.57
2023-01-17T18:51:49.098Z,18.77
2023-01-17T18:54:16.392Z,14.18
2023-01-17T18:56:42.953Z,13.37
2023-01-17T18:59:12.507Z,9.10
2023-01-17T19:01:42.277Z,28.05
2023-01-17T19:04:09.345Z,14.77
2023-01-17T19:06:38.312Z,14.65
2023-01-17T19:09:07.402Z,8.93
2023-01-17T19:11:34.889Z,7.72
2023-01-17T19:14:01.334Z,8.77
2023-01-17T19:16:30.298Z,52.75
2023-01-17T19:19:01.589Z,22.55
2023-01-17T19:21:29.375Z,13.47
2023-01-17T19:23:57.253Z,13.65
2023-01-17T19:26:27.098Z,17.58
2023-01-17T19:28:55.954Z,15.38
2023-01-17T19:31:25.158Z,17.80
2023-01-17T19:33:54.209Z,16.80
2023-01-17T19:36:23.592Z,17.30
2023-01-17T19:39:03.347Z,12.32
2023-01-17T19:41:32.173Z,15.85
2023-01-17T19:44:00.809Z,15.63
2023-01-17T19:46:27.725Z,19.57
2023-01-17T19:48:55.827Z,17.13
2023-01-17T19:51:23.429Z,19.73
2023-01-17T19:53:50.333Z,20.80
2023-01-17T19:56:19.181Z,19.55
2023-01-17T19:58:46.849Z,19.37
2023-01-17T20:01:19.442Z,20.30
2023-01-17T20:03:47.156Z,15.93
2023-01-17T20:06:16.031Z,14.50
2023-01-17T20:08:43.350Z,13.73
2023-01-17T20:11:15.347Z,14.43
2023-01-17T20:13:42.260Z,15.10
2023-01-17T20:16:11.040Z,11.05
2023-01-17T20:18:38.146Z,12.27
2023-01-17T20:21:06.834Z,15.00
2023-01-17T20:23:38.725Z,14.27
2023-01-17T20:26:06.138Z,15.57
2023-01-17T20:28:34.584Z,9.73
2023-01-17T20:31:09.207Z,12.80
2023-01-17T20:33:36.426Z,16.15
2023-01-17T20:36:10.283Z,9.20
2023-01-17T20:38:43.952Z,11.00
2023-01-17T20:41:29.117Z,11.32
2023-01-17T20:43:57.857Z,13.90
2023-01-17T20:46:40.615Z,13.70
2023-01-17T20:49:18.607Z,15.37
2023-01-17T20:51:46.518Z,12.30
2023-01-17T20:54:15.585Z,12.32
2023-01-17T20:56:42.607Z,14.85
2023-01-17T20:59:12.798Z,10.77
2023-01-17T21:01:39.491Z,10.47
2023-01-17T21:04:09.950Z,12.90
2023-01-17T21:06:39.583Z,12.25
2023-01-17T21:09:08.678Z,13.70
2023-01-17T21:11:35.814Z,16.90
2023-01-17T21:14:02.243Z,26.83
2023-01-17T21:16:28.800Z,28.75
2023-01-17T21:18:55.563Z,45.13
2023-01-17T21:21:25.271Z,29.92
2023-01-17T21:23:54.895Z,18.33
2023-01-17T21:26:22.525Z,17.60
2023-01-17T21:28:50.675Z,14.20
2023-01-17T21:31:24.360Z,15.48
2023-01-17T21:33:52.319Z,14.85
2023-01-17T21:36:20.200Z,13.85
2023-01-17T21:38:52.385Z,15.23
2023-01-17T21:41:20.971Z,18.83
2023-01-17T21:43:48.263Z,11.68
2023-01-17T21:46:14.817Z,10.48
2023-01-17T21:48:41.262Z,14.25
2023-01-17T21:51:08.484Z,12.30
2023-01-17T21:53:39.364Z,12.63
2023-01-17T21:56:29.247Z,15.70
2023-01-17T21:58:57.197Z,14.60
2023-01-17T22:01:26.857Z,14.85
2023-01-17T22:04:01.566Z,30.23
2023-01-17T22:06:34.514Z,15.38
2023-01-17T22:09:01.043Z,11.20
2023-01-17T22:11:30.190Z,16.00
2023-01-17T22:13:58.969Z,13.10
2023-01-17T22:16:26.425Z,19.30
2023-01-17T22:18:52.897Z,20.35
2023-01-17T22:21:20.569Z,19.65
2023-01-17T22:23:49.187Z,19.35
2023-01-17T22:26:16.514Z,22.30
2023-01-17T22:28:43.258Z,18.53
2023-01-17T22:31:24.471Z,18.92
2023-01-17T22:33:59.604Z,15.07
2023-01-17T22:36:26.717Z,15.98
2023-01-17T22:38:53.237Z,16.90
2023-01-17T22:41:23.360Z,14.47
2023-01-17T22:43:52.455Z,14.02
2023-01-17T22:46:21.615Z,13.45
2023-01-17T22:48:48.890Z,17.23
2023-01-17T22:51:17.560Z,16.40
2023-01-17T22:53:47.201Z,16.50
2023-01-17T22:56:22.165Z,17.55
2023-01-17T22:58:49.134Z,17.90
2023-01-17T23:01:18.201Z,69.35
2023-01-17T23:03:46.377Z,23.70
2023-01-17T23:06:14.550Z,21.90
2023-01-17T23:08:43.715Z,20.63
2023-01-17T23:11:43.278Z,28.40
2023-01-17T23:14:20.650Z,23.15
2023-01-17T23:17:20.675Z,20.00
2023-01-17T23:19:48.177Z,20.80
2023-01-17T23:22:17.650Z,20.65
2023-01-17T23:24:48.721Z,21.65
2023-01-17T23:27:35.298Z,18.80
2023-01-17T23:30:04.525Z,20.80
2023-01-17T23:32:31.152Z,16.80
2023-01-17T23:34:57.648Z,20.63
2023-01-17T23:37:47.012Z,21.38
2023-01-17T23:40:13.567Z,18.70
2023-01-17T23:43:03.178Z,15.68
2023-01-17T23:45:29.632Z,18.83
2023-01-17T23:47:56.077Z,19.52
2023-01-17T23:50:22.496Z,21.30
2023-01-17T23:52:48.866Z,18.42
2023-01-17T23:55:15.364Z,21.52
2023-01-17T23:57:41.807Z,19.77
